createdAt,value
2018-01-12T00:00:07.279Z,307.75
2018-01-12T00:01:09.792Z,281.87
2018-01-12T00:03:08.638Z,341.50
2018-01-12T00:04:11.146Z,284.62
2018-01-12T00:05:13.645Z,363.25
2018-01-12T00:06:16.254Z,270.77
2018-01-12T00:07:18.701Z,290.95
2018-01-12T00:08:21.184Z,268.98
2018-01-12T00:09:24.442Z,266.95
2018-01-12T00:10:26.934Z,248.13
2018-01-12T00:11:30.248Z,287.05
2018-01-12T00:12:32.705Z,268.33
2018-01-12T00:13:35.936Z,228.40
2018-01-12T00:14:38.462Z,244.73
2018-01-12T00:15:41.096Z,293.67
2018-01-12T00:16:43.708Z,259.50
2018-01-12T00:17:46.190Z,240.00
2018-01-12T00:18:48.660Z,299.15
2018-01-12T00:19:51.170Z,243.65
2018-01-12T00:20:54.038Z,241.15
2018-01-12T00:21:57.269Z,252.45
2018-01-12T00:22:59.891Z,271.20
2018-01-12T00:24:02.377Z,247.07
2018-01-12T00:25:04.909Z,247.12
2018-01-12T00:26:07.380Z,232.40
2018-01-12T00:27:10.631Z,230.02
2018-01-12T00:28:13.933Z,231.60
2018-01-12T00:29:16.433Z,222.95
2018-01-12T00:30:19.110Z,265.12
2018-01-12T00:31:21.593Z,305.50
2018-01-12T00:32:24.141Z,251.88
2018-01-12T00:33:26.632Z,228.23
2018-01-12T00:34:29.102Z,255.62
2018-01-12T00:35:31.832Z,202.82
2018-01-12T00:36:34.349Z,221.05
2018-01-12T00:37:36.819Z,249.70
2018-01-12T00:38:40.103Z,210.80
2018-01-12T00:39:43.343Z,202.43
2018-01-12T00:40:45.973Z,247.68
2018-01-12T00:41:48.458Z,216.52
2018-01-12T00:42:51.695Z,229.05
2018-01-12T00:43:55.486Z,209.35
2018-01-12T00:44:57.997Z,219.25
2018-01-12T00:46:01.281Z,219.15
2018-01-12T00:47:03.767Z,242.82
2018-01-12T00:48:06.234Z,204.10
2018-01-12T00:49:09.799Z,214.02
2018-01-12T00:50:13.039Z,214.30
2018-01-12T00:51:17.011Z,253.73
2018-01-12T00:52:20.252Z,222.12
2018-01-12T00:53:22.722Z,228.77
2018-01-12T00:54:25.203Z,227.57
2018-01-12T00:55:27.673Z,215.65
2018-01-12T00:56:30.166Z,231.70
2018-01-12T00:57:32.666Z,221.52
2018-01-12T00:58:35.194Z,247.18
2018-01-12T00:59:37.684Z,209.35
2018-01-12T01:00:41.082Z,225.35
2018-01-12T01:01:43.682Z,212.90
2018-01-12T01:02:46.151Z,238.35
2018-01-12T01:03:48.669Z,257.48
2018-01-12T01:04:51.968Z,236.70
2018-01-12T01:05:54.491Z,229.38
2018-01-12T01:06:57.036Z,264.52
2018-01-12T01:08:00.367Z,254.35
2018-01-12T01:09:02.821Z,247.32
2018-01-12T01:10:06.082Z,266.35
2018-01-12T01:11:08.619Z,232.02
2018-01-12T01:12:11.158Z,245.95
2018-01-12T01:13:13.671Z,253.35
2018-01-12T01:14:16.194Z,239.73
2018-01-12T01:15:18.676Z,226.43
2018-01-12T01:16:21.256Z,295.48
2018-01-12T01:17:23.798Z,289.12
2018-01-12T01:18:26.286Z,251.05
2018-01-12T01:19:29.535Z,242.35
2018-01-12T01:20:32.020Z,242.05
2018-01-12T01:21:34.494Z,257.12
2018-01-12T01:22:36.989Z,341.60
2018-01-12T01:23:40.239Z,269.35
2018-01-12T01:24:43.471Z,275.50
2018-01-12T01:25:46.710Z,282.27
2018-01-12T01:26:49.317Z,239.45
2018-01-12T01:27:51.810Z,256.10
2018-01-12T01:28:54.318Z,264.70
2018-01-12T01:29:56.787Z,277.65
2018-01-12T01:30:59.266Z,256.00
2018-01-12T01:32:01.747Z,245.63
2018-01-12T01:33:04.239Z,276.65
2018-01-12T01:34:06.712Z,247.70
2018-01-12T01:35:09.936Z,276.23
2018-01-12T01:36:12.513Z,260.45
2018-01-12T01:37:14.966Z,265.05
2018-01-12T01:38:17.429Z,271.67
2018-01-12T01:39:20.649Z,250.15
2018-01-12T01:40:23.119Z,249.68
2018-01-12T01:41:25.619Z,246.80
2018-01-12T01:42:28.082Z,259.83
2018-01-12T01:43:30.556Z,251.27
2018-01-12T01:44:33.018Z,251.48
2018-01-12T01:45:35.647Z,249.10
2018-01-12T01:46:38.146Z,248.70
2018-01-12T01:47:41.370Z,245.07
2018-01-12T01:48:43.847Z,244.62
2018-01-12T01:49:46.317Z,226.95
2018-01-12T01:50:48.778Z,229.30
2018-01-12T01:51:52.038Z,228.32
2018-01-12T01:52:54.508Z,239.02
2018-01-12T01:53:56.987Z,227.80
2018-01-12T01:54:59.452Z,242.20
2018-01-12T01:56:01.921Z,215.45
2018-01-12T01:57:05.310Z,239.70
2018-01-12T01:58:07.799Z,222.00
2018-01-12T01:59:10.280Z,239.48
2018-01-12T02:00:12.744Z,215.32
2018-01-12T02:01:15.985Z,226.77
2018-01-12T02:02:19.262Z,236.93
2018-01-12T02:03:21.725Z,253.80
2018-01-12T02:04:24.217Z,255.15
2018-01-12T02:05:26.685Z,254.40
2018-01-12T02:06:29.923Z,245.98
2018-01-12T02:07:32.482Z,221.05
2018-01-12T02:08:34.957Z,227.10
2018-01-12T02:09:37.409Z,227.07
2018-01-12T02:10:40.645Z,251.73
2018-01-12T02:11:43.102Z,235.43
2018-01-12T02:12:45.669Z,237.52
2018-01-12T02:13:48.146Z,256.83
2018-01-12T02:14:50.607Z,242.35
2018-01-12T02:15:53.079Z,219.32
2018-01-12T02:16:56.335Z,237.18
2018-01-12T02:17:59.562Z,242.05
2018-01-12T02:19:02.836Z,228.43
2018-01-12T02:20:05.352Z,229.45
2018-01-12T02:21:07.839Z,244.25
2018-01-12T02:22:11.100Z,216.45
2018-01-12T02:23:14.362Z,236.52
2018-01-12T02:24:16.858Z,252.18
2018-01-12T02:25:20.106Z,247.63
2018-01-12T02:26:23.326Z,223.87
2018-01-12T02:27:26.218Z,234.05
2018-01-12T02:28:28.694Z,224.98
2018-01-12T02:29:31.157Z,228.35
2018-01-12T02:30:33.631Z,216.27
2018-01-12T02:31:36.096Z,207.70
2018-01-12T02:32:39.362Z,234.23
2018-01-12T02:33:41.828Z,230.87
2018-01-12T02:34:44.287Z,211.68
2018-01-12T02:35:47.519Z,202.27
2018-01-12T02:36:50.742Z,231.68
2018-01-12T02:37:53.239Z,224.05
2018-01-12T02:38:56.028Z,209.98
2018-01-12T02:39:58.490Z,226.90
2018-01-12T02:41:00.957Z,226.07
2018-01-12T02:42:03.659Z,216.45
2018-01-12T02:43:06.225Z,259.35
2018-01-12T02:44:09.463Z,279.10
2018-01-12T02:45:12.689Z,229.18
2018-01-12T02:46:15.163Z,228.25
2018-01-12T02:47:17.625Z,238.12
2018-01-12T02:48:20.111Z,222.73
2018-01-12T02:49:22.574Z,228.73
2018-01-12T02:50:25.097Z,294.05
2018-01-12T02:51:28.317Z,265.65
2018-01-12T02:52:30.800Z,261.30
2018-01-12T02:53:34.047Z,261.77
2018-01-12T02:54:37.300Z,230.77
2018-01-12T02:55:39.769Z,247.55
2018-01-12T02:56:42.238Z,262.85
2018-01-12T02:57:45.510Z,248.87
2018-01-12T02:58:48.630Z,232.93
2018-01-12T02:59:51.854Z,274.52
2018-01-12T03:00:55.115Z,222.07
2018-01-12T03:01:58.377Z,229.93
2018-01-12T03:03:00.870Z,234.85
2018-01-12T03:04:04.105Z,265.25
2018-01-12T03:05:07.374Z,284.27
2018-01-12T03:06:10.607Z,255.55
2018-01-12T03:07:13.853Z,240.80
2018-01-12T03:08:16.348Z,255.93
2018-01-12T03:09:18.806Z,294.10
2018-01-12T03:10:21.289Z,252.55
2018-01-12T03:11:23.772Z,271.13
2018-01-12T03:12:26.253Z,249.43
2018-01-12T03:13:29.504Z,292.75
2018-01-12T03:14:32.759Z,258.42
2018-01-12T03:15:35.237Z,238.93
2018-01-12T03:16:37.695Z,277.98
2018-01-12T03:17:40.951Z,255.43
2018-01-12T03:18:44.206Z,249.95
2018-01-12T03:19:46.694Z,291.23
2018-01-12T03:20:49.959Z,264.50
2018-01-12T03:21:53.194Z,262.40
2018-01-12T03:22:56.468Z,277.60
2018-01-12T03:23:58.929Z,267.55
2018-01-12T03:25:02.228Z,267.40
2018-01-12T03:26:04.694Z,234.60
2018-01-12T03:27:07.161Z,264.30
2018-01-12T03:28:10.382Z,305.35
2018-01-12T03:29:13.628Z,258.50
2018-01-12T03:30:16.889Z,307.20
2018-01-12T03:31:20.110Z,281.83
2018-01-12T03:32:23.355Z,294.87
2018-01-12T03:33:26.580Z,281.92
2018-01-12T03:34:29.064Z,258.38
2018-01-12T03:35:31.673Z,240.10
2018-01-12T03:36:34.152Z,301.88
2018-01-12T03:37:36.656Z,247.52
2018-01-12T03:38:39.109Z,267.02
2018-01-12T03:39:41.674Z,257.50
2018-01-12T03:40:44.911Z,291.05
2018-01-12T03:41:48.167Z,309.65
2018-01-12T03:42:50.733Z,281.67
2018-01-12T03:43:53.207Z,282.80
2018-01-12T03:44:56.430Z,274.88
2018-01-12T03:45:59.741Z,299.37
2018-01-12T03:47:02.256Z,306.85
2018-01-12T03:48:04.714Z,305.70
2018-01-12T03:49:07.178Z,270.60
2018-01-12T03:50:09.703Z,295.58
2018-01-12T03:51:12.170Z,325.33
2018-01-12T03:52:14.981Z,318.60
2018-01-12T03:53:17.449Z,287.63
2018-01-12T03:54:20.021Z,325.38
2018-01-12T03:55:22.754Z,312.25
2018-01-12T03:56:25.210Z,340.30
2018-01-12T03:57:27.694Z,361.60
2018-01-12T03:58:30.261Z,326.35
2018-01-12T03:59:32.718Z,334.60
2018-01-12T04:00:35.949Z,307.25
2018-01-12T04:01:38.410Z,317.45
2018-01-12T04:02:40.898Z,332.95
2018-01-12T04:03:43.356Z,313.70
2018-01-12T04:04:45.978Z,313.12
2018-01-12T04:05:48.451Z,298.85
2018-01-12T04:06:51.300Z,272.75
2018-01-12T04:07:53.855Z,284.77
2018-01-12T04:08:57.086Z,287.48
2018-01-12T04:10:00.395Z,322.12
2018-01-12T04:11:02.850Z,321.15
2018-01-12T04:12:06.143Z,296.35
2018-01-12T04:13:08.589Z,299.35
2018-01-12T04:14:11.850Z,328.45
2018-01-12T04:15:14.319Z,283.30
2018-01-12T04:16:16.876Z,301.90
2018-01-12T04:17:19.384Z,291.38
2018-01-12T04:18:21.846Z,305.15
2018-01-12T04:19:24.443Z,324.90
2018-01-12T04:20:26.907Z,315.87
2018-01-12T04:21:29.372Z,348.90
2018-01-12T04:22:31.837Z,331.05
2018-01-12T04:23:34.406Z,318.67
2018-01-12T04:24:37.767Z,329.20
2018-01-12T04:25:40.261Z,343.77
2018-01-12T04:26:42.740Z,311.75
2018-01-12T04:27:45.998Z,332.37
2018-01-12T04:28:48.565Z,339.50
2018-01-12T04:29:51.914Z,350.38
2018-01-12T04:30:55.342Z,320.73
2018-01-12T04:31:58.027Z,294.98
2018-01-12T04:33:00.530Z,304.85
2018-01-12T04:34:03.058Z,284.27
2018-01-12T04:35:05.736Z,319.95
2018-01-12T04:36:08.302Z,271.05
2018-01-12T04:37:10.844Z,311.45
2018-01-12T04:38:13.378Z,288.55
2018-01-12T04:39:15.865Z,279.35
2018-01-12T04:40:19.145Z,291.80
2018-01-12T04:41:21.625Z,300.02
2018-01-12T04:42:24.861Z,320.77
2018-01-12T04:43:27.626Z,296.90
2018-01-12T04:44:30.112Z,269.02
2018-01-12T04:45:32.662Z,267.98
2018-01-12T04:46:36.635Z,293.10
2018-01-12T04:47:39.881Z,294.37
2018-01-12T04:48:42.341Z,266.65
2018-01-12T04:49:45.773Z,279.63
2018-01-12T04:50:48.260Z,285.92
2018-01-12T04:51:51.532Z,254.80
2018-01-12T04:52:54.635Z,288.30
2018-01-12T04:53:58.639Z,258.30
2018-01-12T04:55:01.142Z,260.60
2018-01-12T04:56:03.698Z,275.48
2018-01-12T04:57:07.144Z,262.60
2018-01-12T04:58:10.313Z,270.00
2018-01-12T04:59:12.860Z,272.33
2018-01-12T05:00:16.379Z,249.43
2018-01-12T05:01:18.837Z,252.65
2018-01-12T05:02:22.094Z,273.40
2018-01-12T05:03:25.343Z,259.42
2018-01-12T05:04:27.903Z,261.23
2018-01-12T05:05:31.152Z,223.73
2018-01-12T05:06:35.201Z,244.57
2018-01-12T05:07:37.824Z,252.55
2018-01-12T05:08:40.312Z,219.40
2018-01-12T05:09:43.571Z,262.63
2018-01-12T05:10:46.526Z,239.73
2018-01-12T05:11:49.063Z,228.77
2018-01-12T05:12:51.557Z,226.00
2018-01-12T05:13:54.789Z,229.80
2018-01-12T05:14:58.043Z,214.40
2018-01-12T05:16:00.729Z,251.95
2018-01-12T05:17:03.374Z,228.23
2018-01-12T05:18:06.053Z,226.25
2018-01-12T05:19:08.550Z,211.55
2018-01-12T05:20:11.015Z,220.30
2018-01-12T05:21:13.492Z,251.62
2018-01-12T05:22:16.769Z,234.98
2018-01-12T05:23:19.955Z,229.48
2018-01-12T05:24:22.418Z,214.88
2018-01-12T05:25:24.908Z,202.48
2018-01-12T05:26:27.413Z,183.15
2018-01-12T05:27:30.008Z,174.00
2018-01-12T05:28:32.498Z,204.15
2018-01-12T05:29:35.730Z,184.98
2018-01-12T05:30:38.970Z,189.02
2018-01-12T05:31:42.226Z,193.45
2018-01-12T05:32:45.529Z,204.68
2018-01-12T05:33:48.047Z,207.15
2018-01-12T05:34:50.993Z,205.12
2018-01-12T05:35:53.466Z,188.40
2018-01-12T05:36:56.714Z,177.40
2018-01-12T05:37:59.211Z,175.02
2018-01-12T05:39:02.515Z,176.90
2018-01-12T05:40:05.756Z,175.57
2018-01-12T05:41:08.982Z,170.65
2018-01-12T05:42:11.486Z,188.70
2018-01-12T05:43:14.640Z,167.02
2018-01-12T05:44:17.215Z,170.10
2018-01-12T05:45:19.699Z,182.52
2018-01-12T05:46:22.225Z,185.82
2018-01-12T05:47:24.718Z,169.98
2018-01-12T05:48:27.959Z,163.45
2018-01-12T05:49:31.214Z,173.30
2018-01-12T05:50:33.753Z,153.05
2018-01-12T05:51:36.286Z,165.73
2018-01-12T05:52:38.792Z,157.98
2018-01-12T05:53:42.014Z,153.15
2018-01-12T05:54:45.295Z,152.30
2018-01-12T05:55:48.781Z,161.80
2018-01-12T05:56:51.361Z,140.65
2018-01-12T05:57:53.871Z,148.55
2018-01-12T05:58:57.107Z,147.02
2018-01-12T06:00:00.026Z,145.38
2018-01-12T06:01:14.530Z,146.13
2018-01-12T06:02:28.995Z,142.32
2018-01-12T06:03:43.366Z,149.15
2018-01-12T06:04:57.726Z,132.70
2018-01-12T06:06:21.747Z,151.90
2018-01-12T06:07:25.672Z,144.10
2018-01-12T06:08:28.140Z,149.93
2018-01-12T06:09:31.437Z,133.43
2018-01-12T06:10:33.895Z,118.07
2018-01-12T06:11:37.150Z,126.07
2018-01-12T06:12:39.610Z,125.45
2018-01-12T06:13:42.076Z,120.57
2018-01-12T06:14:44.554Z,138.20
2018-01-12T06:15:47.020Z,114.43
2018-01-12T06:16:49.571Z,116.60
2018-01-12T06:17:52.927Z,126.72
2018-01-12T07:01:11.598Z,70.87
2018-01-12T07:02:14.079Z,80.55
2018-01-12T07:03:16.542Z,87.53
2018-01-12T07:04:19.013Z,83.10
2018-01-12T07:05:21.498Z,88.93
2018-01-12T07:06:23.970Z,89.62
2018-01-12T07:07:26.489Z,83.60
2018-01-12T07:08:28.963Z,91.05
2018-01-12T07:09:31.443Z,84.47
2018-01-12T07:10:33.965Z,82.78
2018-01-12T07:11:36.438Z,88.50
2018-01-12T07:12:38.994Z,74.93
2018-01-12T07:13:41.493Z,89.10
2018-01-12T07:14:43.962Z,79.78
2018-01-12T07:15:46.494Z,75.32
2018-01-12T07:16:48.967Z,83.22
2018-01-12T07:17:51.478Z,69.70
2018-01-12T07:18:54.708Z,70.18
2018-01-12T07:19:57.973Z,72.05
2018-01-12T07:21:12.379Z,69.72
2018-01-12T07:22:21.794Z,69.53
2018-01-12T07:23:36.718Z,70.03
2018-01-12T07:24:39.186Z,73.10
2018-01-12T07:25:41.703Z,65.95
2018-01-12T07:26:44.965Z,76.43
2018-01-12T07:27:47.423Z,70.55
2018-01-12T07:28:49.921Z,69.60
2018-01-12T07:29:52.404Z,70.28
2018-01-12T07:30:54.916Z,67.93
2018-01-12T07:31:57.483Z,73.40
2018-01-12T07:33:00.068Z,74.03
2018-01-12T07:34:02.642Z,76.72
2018-01-12T07:35:05.176Z,73.85
2018-01-12T07:36:07.667Z,73.35
2018-01-12T07:37:10.896Z,68.32
2018-01-12T07:38:13.460Z,68.20
2018-01-12T07:39:15.913Z,69.90
2018-01-12T07:40:18.408Z,70.25
2018-01-12T07:41:20.903Z,78.70
2018-01-12T07:42:24.271Z,72.62
2018-01-12T07:43:27.521Z,70.62
2018-01-12T07:44:30.145Z,69.62
2018-01-12T07:45:32.678Z,70.00
2018-01-12T07:46:35.130Z,75.60
2018-01-12T07:47:37.606Z,69.00
2018-01-12T07:48:40.839Z,71.53
2018-01-12T07:49:43.337Z,63.53
2018-01-12T07:50:45.816Z,64.57
2018-01-12T07:51:48.282Z,64.55
2018-01-12T07:52:56.600Z,70.03
2018-01-12T07:53:59.826Z,66.45
2018-01-12T07:55:03.103Z,60.58
2018-01-12T07:56:05.583Z,68.43
2018-01-12T07:57:08.808Z,66.78
2018-01-12T07:58:11.366Z,68.50
2018-01-12T07:59:14.626Z,63.63
2018-01-12T08:00:17.096Z,69.40
2018-01-12T08:01:25.396Z,69.35
2018-01-12T08:02:34.466Z,72.78
2018-01-12T08:03:37.701Z,69.70
2018-01-12T08:04:40.940Z,69.90
2018-01-12T08:05:44.129Z,71.00
2018-01-12T08:06:48.713Z,72.30
2018-01-12T08:07:51.166Z,78.20
2018-01-12T08:08:53.721Z,68.87
2018-01-12T08:09:56.954Z,68.87
2018-01-12T08:11:00.185Z,65.55
2018-01-12T08:12:02.661Z,70.22
2018-01-12T08:13:05.157Z,70.75
2018-01-12T08:14:07.641Z,66.25
2018-01-12T08:15:10.109Z,63.67
2018-01-12T08:16:12.580Z,69.30
2018-01-12T08:17:15.159Z,67.32
2018-01-12T08:18:18.426Z,69.60
2018-01-12T08:19:20.889Z,64.18
2018-01-12T08:20:24.109Z,67.00
2018-01-12T08:21:26.619Z,65.65
2018-01-12T08:22:29.072Z,71.18
2018-01-12T08:23:31.550Z,71.10
2018-01-12T08:24:34.011Z,65.00
2018-01-12T08:25:36.538Z,68.10
2018-01-12T08:26:39.008Z,66.70
2018-01-12T08:27:42.229Z,75.93
2018-01-12T08:28:44.785Z,69.50
2018-01-12T08:29:48.057Z,63.53
2018-01-12T08:30:50.562Z,64.93
2018-01-12T08:31:53.077Z,70.87
2018-01-12T08:32:56.301Z,66.87
2018-01-12T08:33:59.529Z,72.00
2018-01-12T08:35:02.017Z,62.62
2018-01-12T08:36:04.476Z,73.50
2018-01-12T08:37:06.949Z,69.22
2018-01-12T08:38:09.522Z,69.45
2018-01-12T08:39:11.932Z,67.03
2018-01-12T08:40:14.518Z,62.28
2018-01-12T08:41:17.005Z,67.60
2018-01-12T08:42:19.470Z,62.85
2018-01-12T08:43:22.086Z,68.93
2018-01-12T08:44:24.520Z,61.70
2018-01-12T08:45:27.058Z,70.80
2018-01-12T08:46:29.551Z,73.47
2018-01-12T08:47:32.846Z,73.57
2018-01-12T08:48:36.030Z,68.07
2018-01-12T08:49:39.265Z,74.20
2018-01-12T08:50:41.734Z,66.95
2018-01-12T08:51:44.226Z,68.70
2018-01-12T08:52:47.453Z,69.95
2018-01-12T08:53:50.012Z,68.87
2018-01-12T08:54:53.242Z,75.07
2018-01-12T08:55:56.497Z,73.45
2018-01-12T08:56:59.744Z,64.28
2018-01-12T08:58:02.245Z,69.90
2018-01-12T08:59:04.816Z,72.37
2018-01-12T09:00:07.278Z,74.53
2018-01-12T09:01:10.497Z,67.28
2018-01-12T09:02:12.958Z,70.70
2018-01-12T09:03:15.441Z,74.35
2018-01-12T09:04:17.934Z,66.62
2018-01-12T09:05:20.391Z,86.80
2018-01-12T09:06:22.882Z,67.20
2018-01-12T09:07:25.338Z,69.43
2018-01-12T09:08:27.830Z,71.93
2018-01-12T09:09:31.079Z,74.20
2018-01-12T09:10:33.556Z,71.47
2018-01-12T09:11:36.023Z,73.60
2018-01-12T09:12:38.489Z,69.00
2018-01-12T09:13:52.922Z,69.00
2018-01-12T09:14:55.478Z,76.62
2018-01-12T09:16:05.762Z,73.00
2018-01-12T09:17:09.024Z,74.97
2018-01-12T09:19:47.910Z,68.15
2018-01-12T09:20:51.129Z,71.78
2018-01-12T09:21:56.284Z,72.87
2018-01-12T09:22:58.745Z,74.70
2018-01-12T09:24:01.205Z,72.87
2018-01-12T09:25:04.441Z,71.82
2018-01-12T09:26:07.698Z,72.60
2018-01-12T09:27:10.962Z,80.25
2018-01-12T09:28:13.418Z,77.40
2018-01-12T09:29:15.885Z,71.65
2018-01-12T09:30:19.110Z,77.72
2018-01-12T09:31:40.879Z,74.43
2018-01-12T09:32:43.405Z,70.65
2018-01-12T09:33:48.631Z,74.47
2018-01-12T09:35:05.979Z,69.28
2018-01-12T09:36:17.506Z,74.28
2018-01-12T09:37:20.731Z,73.87
2018-01-12T09:38:23.275Z,77.18
2018-01-12T09:39:47.413Z,67.75
2018-01-12T09:40:49.878Z,68.10
2018-01-12T09:41:52.450Z,72.65
2018-01-12T09:42:54.922Z,76.47
2018-01-12T09:43:57.378Z,73.97
2018-01-12T09:45:00.692Z,73.03
2018-01-12T09:46:03.146Z,73.78
2018-01-12T09:47:21.896Z,76.47
2018-01-12T09:48:26.909Z,76.70
2018-01-12T09:49:29.370Z,83.28
2018-01-12T09:50:32.599Z,78.97
2018-01-12T09:51:35.847Z,77.68
2018-01-12T09:52:39.098Z,79.18
2018-01-12T09:53:41.586Z,82.37
2018-01-12T09:54:44.154Z,81.47
2018-01-12T09:55:46.605Z,82.85
2018-01-12T09:56:49.100Z,85.90
2018-01-12T09:57:51.635Z,78.68
2018-01-12T09:58:54.115Z,72.57
2018-01-12T09:59:59.318Z,75.12
2018-01-12T10:01:03.294Z,72.40
2018-01-12T10:02:05.760Z,78.32
2018-01-12T10:03:08.242Z,73.12
2018-01-12T10:04:10.711Z,76.18
2018-01-12T10:05:13.201Z,74.32
2018-01-12T10:06:16.461Z,75.40
2018-01-12T10:07:19.808Z,74.80
2018-01-12T10:08:26.047Z,77.60
2018-01-12T10:09:31.241Z,63.85
2018-01-12T10:10:33.710Z,67.68
2018-01-12T10:11:36.179Z,67.18
2018-01-12T10:12:38.634Z,78.10
2018-01-12T10:13:42.053Z,74.32
2018-01-12T10:14:44.611Z,67.43
2018-01-12T10:15:47.846Z,72.75
2018-01-12T10:16:51.081Z,69.32
2018-01-12T10:17:56.253Z,73.47
2018-01-12T10:18:58.723Z,79.25
2018-01-12T10:20:01.888Z,66.22
2018-01-12T10:21:16.418Z,74.45
2018-01-12T10:22:18.911Z,68.35
2018-01-12T10:23:21.378Z,74.28
2018-01-12T10:24:23.938Z,74.62
2018-01-12T10:25:26.407Z,73.03
2018-01-12T10:26:28.997Z,77.53
2018-01-12T10:27:31.460Z,74.65
2018-01-12T10:28:33.942Z,71.78
2018-01-12T10:29:48.353Z,69.72
2018-01-12T10:30:58.493Z,77.40
2018-01-12T10:32:07.610Z,75.93
2018-01-12T10:33:16.898Z,74.53
2018-01-12T10:34:40.139Z,72.62
2018-01-12T10:35:54.434Z,81.78
2018-01-12T10:36:56.922Z,76.28
2018-01-12T10:37:59.436Z,87.20
2018-01-12T10:39:01.911Z,72.68
2018-01-12T10:40:10.391Z,81.28
2018-01-12T10:41:18.875Z,79.45
2018-01-12T10:42:22.147Z,67.78
2018-01-12T10:43:24.624Z,76.05
2018-01-12T10:44:27.183Z,63.63
2018-01-12T10:45:35.530Z,73.28
2018-01-12T10:46:45.224Z,71.80
2018-01-12T10:47:53.454Z,75.75
2018-01-12T10:48:56.583Z,82.60
2018-01-12T10:51:37.389Z,85.82
2018-01-12T10:52:54.693Z,80.28
2018-01-12T10:53:57.173Z,83.10
2018-01-12T10:55:00.442Z,72.30
2018-01-12T10:56:02.966Z,63.47
2018-01-12T10:57:05.463Z,74.03
2018-01-12T10:58:08.927Z,70.62
2018-01-12T10:59:11.390Z,71.68
2018-01-12T11:00:25.493Z,79.55
2018-01-12T11:01:27.947Z,70.93
2018-01-12T11:02:31.173Z,75.40
2018-01-12T11:03:34.420Z,66.00
2018-01-12T11:04:36.875Z,68.78
2018-01-12T11:05:39.984Z,77.93
2018-01-12T11:06:42.437Z,69.97
2018-01-12T11:07:44.890Z,71.93
2018-01-12T11:08:47.999Z,74.78
2018-01-12T11:09:50.485Z,68.80
2018-01-12T11:10:53.189Z,72.32
2018-01-12T11:11:55.654Z,73.85
2018-01-12T11:12:58.915Z,75.87
2018-01-12T11:14:01.390Z,70.00
2018-01-12T11:15:03.865Z,70.03
2018-01-12T11:16:07.053Z,68.07
2018-01-12T11:17:09.935Z,70.10
2018-01-12T11:18:13.189Z,75.30
2018-01-12T11:19:15.645Z,74.30
2018-01-12T11:20:18.126Z,72.45
2018-01-12T11:21:21.368Z,66.50
2018-01-12T11:22:24.626Z,65.47
2018-01-12T11:23:27.093Z,65.53
2018-01-12T11:24:29.547Z,73.78
2018-01-12T11:25:32.799Z,65.12
2018-01-12T11:26:36.063Z,65.97
2018-01-12T11:27:38.539Z,64.70
2018-01-12T11:28:41.028Z,67.43
2018-01-12T11:29:43.517Z,71.97
2018-01-12T11:30:46.751Z,72.85
2018-01-12T11:31:50.017Z,64.82
2018-01-12T11:32:52.638Z,69.43
2018-01-12T11:33:55.600Z,74.90
2018-01-12T11:34:58.052Z,68.00
2018-01-12T11:36:00.543Z,74.68
2018-01-12T11:37:03.001Z,65.65
2018-01-12T11:38:05.499Z,65.18
2018-01-12T11:39:07.974Z,68.47
2018-01-12T11:40:11.246Z,65.87
2018-01-12T11:41:14.461Z,69.62
2018-01-12T11:42:17.709Z,73.05
2018-01-12T11:43:20.950Z,64.00
2018-01-12T11:44:23.442Z,65.32
2018-01-12T11:45:25.926Z,63.03
2018-01-12T11:46:28.393Z,68.82
2018-01-12T11:47:30.892Z,64.82
2018-01-12T11:48:33.357Z,62.62
2018-01-12T11:49:35.821Z,65.37
2018-01-12T11:50:39.165Z,63.90
2018-01-12T11:51:41.626Z,68.97
2018-01-12T11:52:44.129Z,68.07
2018-01-12T11:53:46.587Z,67.45
2018-01-12T11:54:49.085Z,67.80
2018-01-12T11:55:51.541Z,70.60
2018-01-12T11:56:54.053Z,72.85
2018-01-12T11:57:56.637Z,71.28
2018-01-12T11:58:59.884Z,66.95
2018-01-12T12:00:02.426Z,70.15
2018-01-12T12:01:04.903Z,74.55
2018-01-12T12:02:07.717Z,64.70
2018-01-12T12:03:10.282Z,72.12
2018-01-12T12:04:13.538Z,67.45
2018-01-12T12:05:16.009Z,77.72
2018-01-12T12:06:18.531Z,80.80
2018-01-12T12:07:20.985Z,64.10
2018-01-12T12:08:24.249Z,73.45
2018-01-12T12:09:27.527Z,66.35
2018-01-12T12:10:29.991Z,82.32
2018-01-12T12:11:33.237Z,65.05
2018-01-12T12:12:35.693Z,69.53
2018-01-12T12:13:38.160Z,73.50
2018-01-12T12:14:40.636Z,68.57
2018-01-12T12:15:43.733Z,73.15
2018-01-12T12:16:46.216Z,66.55
2018-01-12T12:17:48.750Z,72.45
2018-01-12T12:18:51.213Z,70.95
2018-01-12T12:19:53.706Z,74.35
2018-01-12T12:20:56.154Z,73.62
2018-01-12T12:21:58.627Z,64.45
2018-01-12T12:23:01.098Z,73.50
2018-01-12T12:24:03.545Z,73.28
2018-01-12T12:25:06.147Z,71.70
2018-01-12T12:26:08.610Z,79.25
2018-01-12T12:27:11.827Z,77.18
2018-01-12T12:28:15.825Z,67.80
2018-01-12T12:29:18.303Z,85.62
2018-01-12T12:30:20.778Z,65.03
2018-01-12T12:31:24.021Z,82.03
2018-01-12T12:32:26.486Z,80.70
2018-01-12T12:33:28.961Z,70.70
2018-01-12T12:34:31.492Z,76.18
2018-01-12T12:35:34.844Z,70.03
2018-01-12T12:36:37.358Z,78.55
2018-01-12T12:37:39.894Z,92.70
2018-01-12T12:38:43.153Z,80.97
2018-01-12T12:39:45.714Z,73.82
2018-01-12T12:40:48.181Z,82.05
2018-01-12T12:41:50.641Z,69.32
2018-01-12T12:42:53.131Z,90.07
2018-01-12T12:43:56.341Z,81.07
2018-01-12T12:44:58.828Z,66.10
2018-01-12T12:46:01.331Z,79.82
2018-01-12T12:47:04.162Z,80.28
2018-01-12T12:48:06.644Z,81.45
2018-01-12T12:49:09.200Z,73.78
2018-01-12T12:50:12.427Z,76.70
2018-01-12T12:51:15.691Z,77.93
2018-01-12T12:52:18.928Z,75.05
2018-01-12T12:53:22.197Z,78.93
2018-01-12T12:54:24.786Z,80.90
2018-01-12T12:55:27.338Z,77.28
2018-01-12T12:56:30.565Z,77.82
2018-01-12T12:57:33.822Z,85.25
2018-01-12T12:58:36.301Z,76.57
2018-01-12T12:59:38.765Z,75.03
2018-01-12T13:00:41.257Z,86.75
2018-01-12T13:01:43.819Z,76.68
2018-01-12T13:02:46.301Z,91.40
2018-01-12T13:03:48.765Z,83.93
2018-01-12T13:04:51.617Z,77.22
2018-01-12T13:05:54.105Z,77.82
2018-01-12T13:06:57.337Z,74.47
2018-01-12T13:07:59.806Z,80.60
2018-01-12T13:09:02.305Z,77.55
2018-01-12T13:10:05.531Z,84.15
2018-01-12T13:11:08.080Z,77.28
2018-01-12T13:12:11.386Z,78.82
2018-01-12T13:13:14.610Z,79.28
2018-01-12T13:14:17.153Z,78.90
2018-01-12T13:15:19.622Z,68.47
2018-01-12T13:16:22.109Z,71.47
2018-01-12T13:17:25.336Z,71.90
2018-01-12T13:18:27.936Z,77.57
2018-01-12T13:19:30.415Z,73.00
2018-01-12T13:20:32.894Z,83.60
2018-01-12T13:21:35.366Z,77.25
2018-01-12T13:22:37.813Z,73.95
2018-01-12T13:23:41.432Z,81.00
2018-01-12T13:24:45.389Z,89.25
2018-01-12T13:25:47.877Z,74.60
2018-01-12T13:26:50.357Z,83.57
2018-01-12T13:27:53.587Z,77.55
2018-01-12T13:28:56.069Z,83.40
2018-01-12T13:29:58.619Z,86.47
2018-01-12T13:31:01.077Z,85.50
2018-01-12T13:32:04.334Z,81.68
2018-01-12T13:33:07.609Z,80.70
2018-01-12T13:34:10.734Z,89.65
2018-01-12T13:35:13.203Z,76.72
2018-01-12T13:36:15.675Z,83.72
2018-01-12T13:37:18.191Z,76.60
2018-01-12T13:38:22.212Z,75.22
2018-01-12T13:39:24.787Z,76.07
2018-01-12T13:40:27.306Z,80.97
2018-01-12T13:41:30.522Z,83.32
2018-01-12T13:42:34.498Z,78.47
2018-01-12T13:43:38.063Z,84.93
2018-01-12T13:44:41.275Z,77.22
2018-01-12T13:45:44.537Z,83.87
2018-01-12T13:46:47.066Z,83.15
2018-01-12T13:47:49.517Z,85.00
2018-01-12T13:48:51.994Z,80.65
2018-01-12T13:49:55.253Z,88.40
2018-01-12T13:50:58.505Z,77.25
2018-01-12T13:52:01.001Z,85.75
2018-01-12T13:53:03.466Z,90.60
2018-01-12T13:54:05.931Z,85.35
2018-01-12T13:55:09.911Z,88.85
2018-01-12T13:56:12.459Z,80.05
2018-01-12T13:57:14.917Z,84.93
2018-01-12T13:58:17.402Z,82.80
2018-01-12T13:59:20.640Z,81.07
2018-01-12T14:00:23.868Z,82.10
2018-01-12T14:01:27.127Z,86.07
2018-01-12T14:02:30.370Z,83.70
2018-01-12T14:03:33.608Z,86.75
2018-01-12T14:04:36.826Z,82.93
2018-01-12T14:05:39.314Z,85.47
2018-01-12T14:06:41.761Z,85.65
2018-01-12T14:07:44.250Z,79.95
2018-01-12T14:08:46.719Z,78.20